Latest Weather Observations for Lady Elliot Island

IDQ60801

Issued at 8:02 pm EST Tuesday 21 February 2017 (issued every 30 minutes, with the page automatically refreshed every 10 minutes)

About weather observations | Map of weather stations | Latest weather observations for QLD | Other Formats
Station Details ID: 039059 Name: LADY ELLIOT ISLAND Lat: -24.11 Lon: 152.72 Height: 3.6 m
Data from the previous 72 hours. | See also: Recent months at Lady Elliot Island
Date/Time
EST
Temp
°C
App
Temp
°C
Dew
Point
°C
Rel
Hum
%
Delta-T
°C
Wind Press
QNH
hPa
Press
MSL
hPa
Rain since
9am
mm
Dir  Spd
km/h
Gust
km/h
Spd
kts
Gust
kts
21/07:30pm 27.1 26.0 22.9 78 2.9 ESE 33 43 18 23 1014.8 1014.8 0.0
21/07:00pm 27.2 26.4 23.4 80 2.6 SE 33 41 18 22 1014.7 1014.7 0.0
21/06:30pm 27.3 26.6 23.5 80 2.6 ESE 33 44 18 24 1014.4 1014.4 0.0
21/06:00pm 27.5 26.4 22.9 76 3.1 SE 33 41 18 22 1014.1 1014.1 0.0
21/05:30pm 27.5 27.5 23.7 80 2.6 SE 30 39 16 21 1013.8 1013.8 0.0
21/05:00pm 28.0 27.4 23.4 76 3.2 ESE 32 41 17 22 1013.6 1013.6 0.0
21/04:30pm 27.8 27.2 23.4 77 3.0 SE 32 41 17 22 1013.5 1013.5 0.0
21/04:00pm 28.0 27.8 24.0 79 2.8 SE 32 41 17 22 1013.4 1013.4 0.0
21/03:30pm 28.4 28.2 24.0 77 3.0 SE 32 37 17 20 1013.3 1013.3 0.0
21/03:00pm 28.3 28.4 23.2 74 3.5 SE 28 33 15 18 1013.5 1013.5 0.0
21/02:30pm 28.3 30.3 23.9 77 3.0 SE 20 28 11 15 1013.5 1013.5 0.0
21/02:00pm 28.2 29.8 23.8 77 3.0 SE 22 28 12 15 1013.8 1013.8 0.0
21/01:30pm 28.1 29.7 23.9 78 2.9 SE 22 30 12 16 1013.8 1013.8 0.0
21/01:00pm 28.3 30.5 23.9 77 3.0 SE 19 24 10 13 1014.1 1014.1 0.0
21/12:30pm 28.7 30.7 23.6 74 3.5 SE 19 24 10 13 1014.5 1014.5 0.0
21/12:00pm 28.5 30.8 23.4 74 3.5 SE 17 24 9 13 1014.8 1014.8 0.0
21/11:30am 28.1 30.4 23.5 76 3.2 SE 17 20 9 11 1014.9 1014.9 0.0
21/11:00am 28.3 30.7 23.7 76 3.2 SE 17 24 9 13 1015.0 1015.0 0.0
21/10:30am 27.8 30.9 23.6 78 2.9 SSE 13 19 7 10 1015.2 1015.2 0.0
21/10:00am 27.5 29.5 22.9 76 3.1 SSE 17 22 9 12 1015.2 1015.2 0.0
21/09:30am 28.6 30.0 21.9 67 4.5 SE 17 20 9 11 1015.4 1015.4 0.0
21/09:00am 29.0 31.4 23.0 70 4.1 E 15 17 8 9 1015.2 1015.2 0.0
21/08:30am 29.2 32.2 22.7 68 4.4 E 11 15 6 8 1014.8 1014.8 0.0
21/08:00am 27.5 29.5 22.9 76 3.1 E 17 20 9 11 1014.6 1014.6 0.0
21/07:30am 27.6 30.7 23.6 79 2.7 SSE 13 20 7 11 1014.3 1014.3 0.0
21/07:00am 26.4 29.0 22.7 80 2.5 S 13 19 7 10 1013.9 1013.9 0.0
21/06:30am 25.6 28.0 22.9 85 1.8 S 15 24 8 13 1013.5 1013.5 0.0
21/06:00am 24.6 29.7 22.7 89 1.3 CALM 0 0 0 0 1013.0 1013.0 0.0
21/05:30am 24.2 28.9 21.9 87 1.5 CALM 0 0 0 0 1012.7 1012.7 0.0
21/05:00am 24.5 29.3 22.2 87 1.5 CALM 0 0 0 0 1012.4 1012.4 0.0
21/04:30am 24.4 29.2 22.1 87 1.5 CALM 0 0 0 0 1012.0 1012.0 0.0
21/04:00am 25.2 29.1 22.5 85 1.8 SE 6 7 3 4 1011.8 1011.8 0.0
21/03:30am 25.7 29.9 23.2 86 1.7 SE 6 9 3 5 1011.6 1011.6 0.0
21/03:00am 25.9 30.1 23.4 86 1.7 SE 7 9 4 5 1011.5 1011.5 0.0
21/02:30am 26.1 30.4 23.6 86 1.7 SE 7 11 4 6 1011.5 1011.5 0.0
21/02:00am 25.9 30.4 23.6 87 1.6 SE 6 11 3 6 1011.6 1011.6 0.0
21/01:30am 25.7 30.1 23.4 87 1.6 SSE 6 9 3 5 1011.9 1011.9 0.0
21/01:00am 24.3 28.9 21.8 86 1.7 CALM 0 0 0 0 1012.3 1012.3 0.0
21/12:30am 24.6 29.3 21.9 85 1.8 CALM 0 0 0 0 1012.6 1012.6 0.0
21/12:00am 25.5 30.6 22.6 84 2.0 CALM 0 0 0 0 1012.4 1012.4 0.0
 
Date/Time
EST
Temp
°C
App
Temp
°C
Dew
Point
°C
Rel
Hum
%
Delta-T
°C
Wind Press
QNH
hPa
Press
MSL
hPa
Rain since
9am
mm
Dir  Spd
km/h
Gust
km/h
Spd
kts
Gust
kts
20/11:30pm 26.3 30.1 23.4 84 2.0 ESE 9 11 5 6 1012.4 1012.4 0.0
20/11:00pm 26.3 30.5 23.4 84 2.0 E 7 9 4 5 1012.5 1012.5 0.0
20/10:30pm 26.6 30.8 23.5 83 2.1 E 7 11 4 6 1012.5 1012.5 0.0
20/10:00pm 26.6 30.4 23.5 83 2.1 E 9 11 5 6 1012.6 1012.6 0.0
20/09:30pm 26.8 30.8 23.7 83 2.1 E 9 11 5 6 1012.5 1012.5 0.0
20/09:00pm 26.9 30.9 23.8 83 2.1 ENE 9 13 5 7 1012.3 1012.3 0.0
20/08:30pm 27.0 30.3 23.9 83 2.1 ENE 13 17 7 9 1011.9 1011.9 0.0
20/08:00pm 27.2 30.6 24.1 83 2.1 E 13 19 7 10 1011.7 1011.7 0.0
20/07:30pm 27.2 30.4 23.7 81 2.4 E 13 15 7 8 1011.3 1011.3 0.0
20/07:00pm 27.3 30.5 23.1 78 2.9 E 11 13 6 7 1010.9 1010.9 0.0
20/06:30pm 27.5 31.1 22.4 73 3.4 ENE 7 11 4 6 1010.5 1010.5 0.0
20/06:00pm 28.1 31.4 22.6 72 3.7 ENE 9 15 5 8 1010.2 1010.2 0.0
20/05:30pm 28.7 31.4 22.2 68 4.4 ENE 11 15 6 8 1009.7 1009.7 0.0
20/05:00pm 28.9 31.9 22.6 69 4.3 ENE 11 15 6 8 1009.2 1009.2 0.0
20/04:30pm 29.0 31.5 23.2 71 4.0 E 15 19 8 10 1009.0 1009.0 0.0
20/04:00pm 29.2 31.9 22.9 69 4.3 E 13 17 7 9 1008.8 1008.8 0.0
20/03:30pm 29.3 32.2 22.5 67 4.6 E 11 13 6 7 1008.9 1008.9 0.0
20/03:00pm 29.9 33.4 22.9 66 4.8 E 9 13 5 7 1009.0 1009.0 0.0
20/02:30pm 29.6 32.7 22.1 64 5.1 ESE 9 13 5 7 1009.2 1009.2 0.0
20/02:00pm 29.7 33.2 22.9 67 4.7 SSE 9 15 5 8 1009.4 1009.4 0.0
20/01:30pm 29.7 33.1 22.7 66 4.8 SSE 9 15 5 8 1009.6 1009.6 0.0
20/01:00pm 29.7 32.3 22.7 66 4.8 S 13 15 7 8 1009.9 1009.9 0.0
20/12:30pm 28.9 32.3 23.3 72 3.8 S 11 15 6 8 1010.2 1010.2 0.0
20/12:00pm 28.2 31.8 23.1 74 3.5 S 9 11 5 6 1010.3 1010.3 0.0
20/11:30am 28.3 31.5 23.0 73 3.6 S 11 15 6 8 1010.5 1010.5 0.0
20/11:00am 28.9 32.8 23.6 73 3.7 S 9 13 5 7 1010.7 1010.7 0.0
20/10:30am 28.5 32.0 23.6 75 3.4 SSE 11 15 6 8 1010.9 1010.9 0.0
20/10:00am 28.1 31.6 23.5 76 3.2 S 11 15 6 8 1010.9 1010.9 0.0
20/09:30am 27.3 30.4 22.9 77 3.0 SSW 11 13 6 7 1011.0 1011.0 0.0
20/09:00am 28.0 31.1 22.9 74 3.5 SSW 11 15 6 8 1011.1 1011.1 0.0
20/08:30am 27.6 31.1 22.8 75 3.3 SSE 9 13 5 7 1011.0 1011.0 0.0
20/08:00am 26.9 30.8 22.9 79 2.7 SSE 7 11 4 6 1010.8 1010.8 0.0
20/07:30am 26.6 30.8 23.1 81 2.4 SSE 6 7 3 4 1010.6 1010.6 0.0
20/07:00am 25.9 30.0 23.0 84 2.0 SSE 6 9 3 5 1010.1 1010.1 0.0
20/06:30am 25.5 29.1 23.0 86 1.7 SSW 9 13 5 7 1009.8 1009.8 0.0
20/06:00am 25.0 28.7 23.2 90 1.2 SSW 9 15 5 8 1009.4 1009.4 0.0
20/05:30am 24.8 28.0 23.0 90 1.2 SSW 11 17 6 9 1009.0 1009.0 0.0
20/05:00am 24.8 26.6 22.5 87 1.5 SSW 17 26 9 14 1008.9 1008.9 0.0
20/04:30am 27.4 30.8 23.4 79 2.7 NW 11 20 6 11 1008.4 1008.4 0.0
20/04:00am 27.2 30.1 23.2 79 2.7 NW 13 20 7 11 1008.2 1008.2 0.0
20/03:30am 27.2 30.2 23.4 80 2.6 NNW 13 20 7 11 1007.9 1007.9 0.0
20/03:00am 27.3 30.2 23.1 78 2.9 NNW 13 20 7 11 1008.1 1008.1 0.0
20/02:30am 27.2 29.6 23.0 78 2.9 NNW 15 20 8 11 1008.2 1008.2 0.0
20/02:00am 27.3 29.8 23.1 78 2.9 NNW 15 22 8 12 1008.4 1008.4 0.0
20/01:30am 27.4 29.6 23.2 78 2.9 NNW 17 24 9 13 1008.6 1008.6 0.0
20/01:00am 27.4 29.6 23.2 78 2.9 NNW 17 22 9 12 1008.6 1008.6 0.0
20/12:30am 27.3 29.7 22.9 77 3.0 NNW 15 22 8 12 1008.8 1008.8 0.0
20/12:00am 27.4 29.6 22.6 75 3.3 NNW 15 22 8 12 1009.1 1009.1 0.0
 
Date/Time
EST
Temp
°C
App
Temp
°C
Dew
Point
°C
Rel
Hum
%
Delta-T
°C
Wind Press
QNH
hPa
Press
MSL
hPa
Rain since
9am
mm
Dir  Spd
km/h
Gust
km/h
Spd
kts
Gust
kts
19/11:30pm 27.4 29.7 22.8 76 3.1 NNW 15 24 8 13 1009.4 1009.4 0.0
19/11:00pm 27.4 30.1 22.8 76 3.1 NNW 13 19 7 10 1009.5 1009.5 0.0
19/10:30pm 27.4 30.0 22.6 75 3.2 NNW 13 22 7 12 1009.7 1009.7 0.0
19/10:00pm 27.4 29.2 22.6 75 3.3 NNW 17 22 9 12 1009.4 1009.4 0.0
19/09:30pm 27.3 29.1 22.5 75 3.2 NNW 17 22 9 12 1009.4 1009.4 0.0
19/09:00pm 27.4 29.6 22.6 75 3.3 NNW 15 20 8 11 1009.3 1009.3 0.0
19/08:30pm 27.3 29.1 22.5 75 3.2 NNW 17 24 9 13 1009.0 1009.0 0.0
19/08:00pm 27.3 28.3 22.9 77 3.0 N 22 28 12 15 1008.7 1008.7 0.0
19/07:30pm 27.2 27.7 22.6 76 3.1 N 24 30 13 16 1008.3 1008.3 0.0
19/07:00pm 27.2 27.6 22.4 75 3.2 N 24 28 13 15 1007.8 1007.8 0.0
19/06:30pm 27.3 28.4 22.3 74 3.4 NNW 20 26 11 14 1007.6 1007.6 0.0
19/06:00pm 27.6 29.0 22.5 74 3.5 NNW 19 28 10 15 1007.4 1007.4 0.0
19/05:30pm 28.0 29.1 22.0 70 4.0 NNW 19 24 10 13 1006.8 1006.8 0.0
19/05:00pm 28.1 29.5 21.9 69 4.2 NNW 17 24 9 13 1006.4 1006.4 0.0
19/04:30pm 28.4 30.2 21.9 68 4.4 NNW 15 22 8 12 1006.5 1006.5 0.0
19/04:00pm 29.4 31.5 22.4 66 4.8 NNW 15 22 8 12 1006.8 1006.8 0.0
19/03:30pm 29.5 31.0 22.0 64 5.1 NW 17 22 9 12 1007.1 1007.1 0.0
19/03:00pm 30.0 31.4 21.9 62 5.5 NW 17 22 9 12 1007.3 1007.3 0.0
19/02:30pm 30.2 32.0 21.8 60 5.7 NNW 15 20 8 11 1007.4 1007.4 0.0
19/02:00pm 30.2 31.6 21.8 60 5.7 NNW 17 22 9 12 1007.7 1007.7 0.0
19/01:30pm 29.8 30.5 21.5 61 5.6 NNW 20 26 11 14 1008.0 1008.0 0.0
19/01:00pm 30.9 31.7 21.7 58 6.2 N 20 24 11 13 1008.1 1008.1 0.0
19/12:30pm 30.4 31.3 21.5 59 6.0 N 19 26 10 14 1008.2 1008.2 0.0
19/12:00pm 30.7 32.9 21.8 59 6.0 N 13 22 7 12 1008.4 1008.4 0.0
19/11:30am 30.3 32.2 21.4 59 6.0 NNE 13 20 7 11 1008.7 1008.7 0.0
19/11:00am 30.8 32.5 21.0 56 6.6 NNE 13 20 7 11 1009.0 1009.0 0.0
19/10:30am 30.1 31.6 20.6 56 6.3 N 13 19 7 10 1009.4 1009.4 0.0
19/10:00am 29.5 31.0 20.6 58 5.9 N 13 17 7 9 1009.6 1009.6 0.0
19/09:30am 29.9 31.6 20.2 56 6.4 N 11 15 6 8 1009.7 1009.7 0.0
19/09:00am 28.9 30.6 20.1 59 5.8 N 11 13 6 7 1009.8 1009.8 0.0
19/08:30am 29.0 31.2 20.4 59 5.7 N 9 13 5 7 1009.9 1009.9 0.0
19/08:00am 28.4 30.5 20.2 61 5.4 N 9 13 5 7 1009.8 1009.8 0.0
19/07:30am 27.9 30.2 19.9 61 5.2 N 7 11 4 6 1009.6 1009.6 0.0
19/07:00am 27.5 30.4 21.1 68 4.2 N 7 11 4 6 1009.5 1009.5 0.0
19/06:30am 26.4 29.2 20.9 72 3.6 N 7 11 4 6 1009.7 1009.7 0.0
19/06:00am 26.1 28.8 20.7 72 3.6 N 7 11 4 6 1009.5 1009.5 0.0
19/05:30am 25.8 27.9 20.1 71 3.7 N 9 13 5 7 1009.5 1009.5 0.0
19/05:00am 26.0 27.8 20.3 71 3.7 WNW 11 19 6 10 1009.8 1009.8 0.0
19/04:30am 26.1 27.5 20.4 71 3.7 WNW 13 19 7 10 1009.8 1009.8 0.0
19/04:00am 26.0 28.1 21.0 74 3.3 NW 11 17 6 9 1009.7 1009.7 0.0
19/03:30am 26.1 28.1 20.7 72 3.5 NW 11 17 6 9 1009.7 1009.7 0.0
19/03:00am 26.1 28.1 20.7 72 3.6 NW 11 19 6 10 1009.7 1009.7 0.0
19/02:30am 26.1 28.5 20.9 73 3.4 NW 9 15 5 8 1009.3 1009.3 0.0
19/02:00am 26.2 27.8 20.8 72 3.6 NNW 13 19 7 10 1009.4 1009.4 0.0
19/01:30am 26.4 28.1 20.9 72 3.6 NNW 13 20 7 11 1009.5 1009.5 0.0
19/01:00am 26.5 27.8 20.8 71 3.8 NNW 15 22 8 12 1009.7 1009.7 0.0
19/12:30am 26.5 27.1 21.3 73 3.4 NNW 20 26 11 14 1009.7 1009.7 0.0
19/12:00am 26.5 27.8 21.7 75 3.2 N 17 26 9 14 1009.7 1009.7 0.0
 
Date/Time
EST
Temp
°C
App
Temp
°C
Dew
Point
°C
Rel
Hum
%
Delta-T
°C
Wind Press
QNH
hPa
Press
MSL
hPa
Rain since
9am
mm
Dir  Spd
km/h
Gust
km/h
Spd
kts
Gust
kts
18/11:30pm 26.4 27.6 21.4 74 3.3 N 17 24 9 13 1009.9 1009.9 0.0
18/11:00pm 26.3 28.1 21.1 73 3.4 N 13 22 7 12 1010.1 1010.1 0.0
18/10:30pm 26.4 28.8 21.6 75 3.2 N 11 19 6 10 1010.1 1010.1 0.0
18/10:00pm 26.3 28.2 21.3 74 3.3 NNE 13 22 7 12 1010.1 1010.1 0.0
18/09:30pm 26.2 28.0 21.2 74 3.3 NNE 13 20 7 11 1009.9 1009.9 0.0
18/09:00pm 26.1 28.0 21.3 75 3.2 NNE 13 20 7 11 1009.6 1009.6 0.0
18/08:30pm 26.1 28.4 21.3 75 3.2 NNE 11 19 6 10 1009.6 1009.6 0.0

Other Formats:

Comma delimited format used in spreadsheet applications
http://www.bom.gov.au/fwo/IDQ60801/IDQ60801.94388.axf

JavaScript Object Notation format (JSON) in row-major order
http://www.bom.gov.au/fwo/IDQ60801/IDQ60801.94388.json